Time;durP1;ratioP1;P1;durP2;ratioP2;P2;SDS_P1;SDS_P2;PMS_P1;PMS_P2;Temp;Humidity;BMP_temperature;BMP_pressure;BME280_temperature;BME280_humidity;BME280_pressure;Samples;Min_cycle;Max_cycle;Signal;HPM_P1;HPM_P2
2021/05/19 00:00:09;;;;;;;2.35;2.10;;;;;;;8.68;82.71;92205.20;1798671;76;21109;-77
2021/05/19 00:02:38;;;;;;;2.50;1.90;;;;;;;8.68;82.80;92204.45;1849409;77;21702;-80
2021/05/19 00:05:05;;;;;;;2.02;1.60;;;;;;;8.68;82.82;92204.45;1769038;81;21961;-77
2021/05/19 00:07:31;;;;;;;1.87;1.72;;;;;;;8.67;82.59;92205.63;1767654;80;21022;-79
2021/05/19 00:09:58;;;;;;;2.08;1.98;;;;;;;8.65;82.48;92206.62;1768860;81;21113;-79
2021/05/19 00:12:24;;;;;;;4.58;2.30;;;;;;;8.64;82.92;92207.80;1763191;80;21006;-85
2021/05/19 00:14:52;;;;;;;2.20;2.02;;;;;;;8.61;82.51;92213.45;1757424;81;21022;-82
2021/05/19 00:17:18;;;;;;;2.33;2.12;;;;;;;8.60;82.28;92211.92;1758037;81;21089;-83
2021/05/19 00:19:47;;;;;;;1.85;1.75;;;;;;;8.59;82.31;92210.99;1756080;80;21005;-81
2021/05/19 00:22:13;;;;;;;1.80;1.70;;;;;;;8.58;82.65;92208.88;1772329;80;21001;-79
2021/05/19 00:24:40;;;;;;;1.90;1.80;;;;;;;8.58;82.54;92214.30;1777130;80;20985;-80
2021/05/19 00:27:07;;;;;;;2.20;2.00;;;;;;;8.58;82.55;92214.30;1777947;80;21084;-82
2021/05/19 00:29:35;;;;;;;1.97;1.87;;;;;;;8.58;82.18;92215.65;1778010;80;21092;-80
2021/05/19 00:32:01;;;;;;;3.90;1.80;;;;;;;8.58;82.37;92217.00;1778484;80;21064;-80
2021/05/19 00:34:27;;;;;;;2.17;1.90;;;;;;;8.59;82.49;92208.28;1798915;79;21024;-82
2021/05/19 00:36:55;;;;;;;1.75;1.60;;;;;;;8.62;82.29;92222.38;1805025;79;20997;-82
2021/05/19 00:39:22;;;;;;;2.80;1.62;;;;;;;8.62;81.52;92216.95;1823394;77;21710;-79
2021/05/19 00:41:48;;;;;;;1.70;1.60;;;;;;;8.62;81.73;92216.95;1779394;79;21063;-80
2021/05/19 00:44:21;;;;;;;2.08;1.90;;;;;;;8.63;81.84;92216.53;1798343;79;21072;-77
2021/05/19 00:46:47;;;;;;;1.67;1.57;;;;;;;8.65;81.89;92220.17;1776305;79;21059;-79
2021/05/19 00:49:15;;;;;;;2.10;1.90;;;;;;;8.66;81.67;92222.48;1828916;77;21613;-79
2021/05/19 00:51:41;;;;;;;3.77;1.90;;;;;;;8.68;81.62;92220.70;1804206;77;21492;-75
2021/05/19 00:54:08;;;;;;;1.87;1.77;;;;;;;8.69;81.76;92229.80;1800244;79;21080;-78
2021/05/19 00:56:34;;;;;;;1.47;1.37;;;;;;;8.70;81.55;92229.20;1846841;77;21554;-78
2021/05/19 00:59:02;;;;;;;1.50;1.40;;;;;;;8.70;81.61;92227.26;1780207;80;20981;-80
2021/05/19 01:01:36;;;;;;;1.32;1.17;;;;;;;8.71;81.55;92223.95;1844507;77;21000;-79
2021/05/19 01:04:11;;;;;;;1.35;1.30;;;;;;;8.72;81.56;92229.55;1826909;77;20977;-77
2021/05/19 01:06:59;;;;;;;1.77;1.60;;;;;;;8.73;81.55;92222.97;1793072;79;21079;-80
2021/05/19 01:09:35;;;;;;;1.55;1.45;;;;;;;8.74;81.35;92225.25;1780976;79;20985;-81
2021/05/19 01:12:13;;;;;;;1.50;1.40;;;;;;;8.76;81.29;92219.41;1786082;79;21509;-83
2021/05/19 01:14:41;;;;;;;1.47;1.37;;;;;;;8.77;80.73;92220.20;1798405;79;21023;-81
2021/05/19 01:17:08;;;;;;;3.45;1.60;;;;;;;8.74;80.93;92220.42;1792255;79;20926;-76
2021/05/19 01:19:40;;;;;;;1.17;1.12;;;;;;;8.74;80.93;92226.61;1808731;79;21013;-77
2021/05/19 01:22:12;;;;;;;1.00;1.00;;;;;;;8.74;80.69;92231.27;1798149;79;21058;-81
2021/05/19 01:24:40;;;;;;;1.65;1.55;;;;;;;8.74;80.42;92227.20;1785493;80;21039;-78
2021/05/19 01:27:07;;;;;;;1.90;1.77;;;;;;;8.75;80.66;92225.42;1783119;80;21011;-79
2021/05/19 01:29:34;;;;;;;2.42;1.87;;;;;;;8.77;80.89;92233.16;1741057;82;21630;-75
2021/05/19 01:32:01;;;;;;;2.08;1.32;;;;;;;8.78;80.70;92225.79;1747798;82;21159;-79
2021/05/19 01:34:27;;;;;;;1.02;1.00;;;;;;;8.79;80.44;92224.60;1755911;81;20943;-80
2021/05/19 01:36:55;;;;;;;1.07;0.98;;;;;;;8.78;80.34;92225.20;1797325;79;21057;-80
2021/05/19 01:39:22;;;;;;;1.17;1.05;;;;;;;8.75;80.53;92225.42;1764036;81;20998;-78
2021/05/19 01:41:50;;;;;;;1.50;1.35;;;;;;;8.74;80.11;92221.19;1757192;80;21063;-77
2021/05/19 01:44:18;;;;;;;1.05;1.05;;;;;;;8.70;79.76;92223.19;1833594;78;21997;-78
2021/05/19 01:46:46;;;;;;;0.78;0.78;;;;;;;8.69;79.63;92216.84;1806754;78;21030;-80
2021/05/19 01:49:13;;;;;;;1.77;1.62;;;;;;;8.66;79.42;92221.13;1799052;79;20970;-81
2021/05/19 01:51:41;;;;;;;1.50;1.40;;;;;;;8.64;80.07;92220.77;1787127;79;21633;-80
2021/05/19 01:54:09;;;;;;;1.00;1.00;;;;;;;8.65;80.00;92225.59;1771482;80;21168;-79
2021/05/19 01:56:39;;;;;;;2.83;1.60;;;;;;;8.62;79.92;92224.48;1777850;79;21066;-79
2021/05/19 01:59:06;;;;;;;1.70;1.60;;;;;;;8.62;80.30;92226.44;1736713;82;20997;-81
2021/05/19 02:01:34;;;;;;;1.65;1.55;;;;;;;8.61;80.97;92227.59;1736523;82;21138;-76
2021/05/19 02:04:12;;;;;;;1.12;1.12;;;;;;;8.60;80.85;92228.77;1733273;81;21037;-79
2021/05/19 02:06:50;;;;;;;1.22;1.22;;;;;;;8.58;81.00;92225.13;1730363;82;20997;-79
2021/05/19 02:09:19;;;;;;;1.27;1.22;;;;;;;8.57;80.97;92239.08;1739533;81;21189;-80
2021/05/19 02:11:48;;;;;;;1.12;1.02;;;;;;;8.55;80.29;92234.08;1739207;81;21065;-81
2021/05/19 02:14:15;;;;;;;1.60;1.40;;;;;;;8.56;80.39;92231.54;1739278;81;21109;-78
2021/05/19 02:16:45;;;;;;;1.40;1.35;;;;;;;8.59;80.58;92234.78;1789730;79;21072;-80
2021/05/19 02:19:13;;;;;;;1.80;1.52;;;;;;;8.61;80.89;92232.42;1767062;78;21016;-80
2021/05/19 02:21:45;;;;;;;1.25;1.15;;;;;;;8.62;81.11;92244.05;1758791;77;21047;-82
2021/05/19 02:24:12;;;;;;;1.52;1.42;;;;;;;8.62;81.32;92242.69;1857702;77;20941;-78
2021/05/19 02:26:40;;;;;;;1.50;1.40;;;;;;;8.62;81.35;92235.33;1772531;81;20993;-78
2021/05/19 02:29:07;;;;;;;1.37;1.27;;;;;;;8.62;81.01;92244.05;1783676;80;21056;-76
2021/05/19 02:31:35;;;;;;;1.50;1.40;;;;;;;8.59;80.84;92240.80;1799853;79;20953;-80
2021/05/19 02:34:02;;;;;;;1.47;1.37;;;;;;;8.54;80.85;92256.94;1771346;80;21069;-77
2021/05/19 02:36:29;;;;;;;1.40;1.30;;;;;;;8.50;80.80;92250.80;1793409;78;21522;-76
2021/05/19 02:38:55;;;;;;;3.08;1.45;;;;;;;8.48;80.28;92243.07;1820956;78;21040;-79
2021/05/19 02:41:23;;;;;;;1.95;1.47;;;;;;;8.50;80.21;92248.09;1860525;77;21659;-80
2021/05/19 02:43:50;;;;;;;1.67;1.57;;;;;;;8.54;80.24;92255.58;1805491;77;21111;-82
2021/05/19 02:46:17;;;;;;;1.50;1.40;;;;;;;8.54;80.24;92257.50;1796181;79;21069;-80
2021/05/19 02:48:44;;;;;;;2.22;1.17;;;;;;;8.56;80.60;92264.05;1805068;79;21056;-78
2021/05/19 02:51:10;;;;;;;1.30;1.20;;;;;;;8.57;79.79;92262.86;1805490;79;20985;-82
2021/05/19 02:53:37;;;;;;;1.00;1.00;;;;;;;8.55;78.81;92263.88;1806032;79;21033;-84
2021/05/19 02:56:04;;;;;;;1.10;1.10;;;;;;;8.55;79.31;92265.23;1805841;79;20977;-80
2021/05/19 02:58:32;;;;;;;1.10;1.10;;;;;;;8.54;78.91;92271.05;1772930;78;21125;-79
2021/05/19 03:00:58;;;;;;;1.07;1.07;;;;;;;8.54;79.24;92271.05;1776712;78;21665;-77
2021/05/19 03:03:24;;;;;;;2.17;1.65;;;;;;;8.55;78.66;92267.19;1806210;78;20959;-80
2021/05/19 03:05:51;;;;;;;1.02;0.93;;;;;;;8.55;78.79;92276.08;1728123;83;21037;-81
2021/05/19 03:08:19;;;;;;;1.85;0.80;;;;;;;8.56;78.81;92274.89;1739431;82;21112;-79
2021/05/19 03:10:45;;;;;;;1.30;1.20;;;;;;;8.57;78.07;92263.45;1741864;82;21116;-80
2021/05/19 03:13:12;;;;;;;1.55;1.45;;;;;;;8.56;78.30;92273.53;1760474;80;21032;-80
2021/05/19 03:15:39;;;;;;;1.20;1.10;;;;;;;8.56;78.47;92270.83;1780947;80;21033;-79
2021/05/19 03:18:05;;;;;;;1.65;1.45;;;;;;;8.58;78.26;92277.20;1760557;81;21657;-78
2021/05/19 03:20:31;;;;;;;1.55;1.10;;;;;;;8.59;78.46;92284.16;1757409;81;21023;-79
2021/05/19 03:22:58;;;;;;;1.50;1.32;;;;;;;8.60;78.01;92282.97;1791569;79;21255;-76
2021/05/19 03:25:25;;;;;;;1.55;1.22;;;;;;;8.63;78.25;92287.57;1782877;79;21134;-80
2021/05/19 03:27:52;;;;;;;1.60;1.50;;;;;;;8.63;78.32;92286.22;1758979;80;21601;-81
2021/05/19 03:30:19;;;;;;;1.95;1.42;;;;;;;8.62;78.30;92283.34;1764153;81;21037;-79
2021/05/19 03:32:45;;;;;;;1.90;1.70;;;;;;;8.63;78.12;92285.63;1860122;77;21485;-79
2021/05/19 03:35:12;;;;;;;1.57;1.47;;;;;;;8.63;78.73;92284.27;1778000;78;21492;-78
2021/05/19 03:37:39;;;;;;;2.65;1.40;;;;;;;8.64;78.71;92289.86;1760219;80;21222;-82
2021/05/19 03:40:07;;;;;;;3.27;1.40;;;;;;;8.65;78.71;92284.64;1750821;81;21678;-80
2021/05/19 03:42:34;;;;;;;1.60;1.50;;;;;;;8.65;78.52;92295.48;1734471;80;21018;-83
2021/05/19 03:45:04;;;;;;;2.67;1.40;;;;;;;8.66;78.26;92288.11;1790657;80;20976;-80
2021/05/19 03:47:31;;;;;;;2.98;1.47;;;;;;;8.67;76.89;92286.93;1773587;80;21511;-79
2021/05/19 03:49:58;;;;;;;1.98;1.60;;;;;;;8.69;77.28;92292.12;1779542;79;21057;-82
2021/05/19 03:52:24;;;;;;;2.80;1.65;;;;;;;8.72;77.94;92300.00;1805634;79;20957;-78
2021/05/19 03:54:50;;;;;;;1.77;1.30;;;;;;;8.70;77.98;92293.66;1834851;77;21787;-78
2021/05/19 03:57:17;;;;;;;1.52;1.42;;;;;;;8.70;78.12;92305.84;1808915;79;21100;-78
2021/05/19 03:59:43;;;;;;;1.67;1.20;;;;;;;8.71;78.01;92292.47;1767543;79;21008;-82
2021/05/19 04:02:09;;;;;;;1.98;1.77;;;;;;;8.72;77.93;92300.00;1800112;77;21040;-83
2021/05/19 04:04:36;;;;;;;1.75;1.65;;;;;;;8.71;77.36;92301.95;1816088;77;21586;-80
2021/05/19 04:07:03;;;;;;;1.80;1.70;;;;;;;8.72;78.06;92306.19;1811153;77;21023;-79
2021/05/19 04:09:31;;;;;;;2.15;1.95;;;;;;;8.75;77.68;92305.97;1782537;80;21023;-82
2021/05/19 04:11:58;;;;;;;1.65;1.52;;;;;;;8.77;77.57;92308.28;1828758;78;21091;-84
2021/05/19 04:14:25;;;;;;;2.87;1.77;;;;;;;8.79;77.77;92308.03;1776671;77;21082;-78
2021/05/19 04:16:51;;;;;;;1.65;1.47;;;;;;;8.78;77.23;92314.64;1807631;77;21503;-79
2021/05/19 04:19:18;;;;;;;2.17;1.92;;;;;;;8.79;77.45;92320.83;1821496;78;21091;-77
2021/05/19 04:21:45;;;;;;;1.80;1.70;;;;;;;8.79;77.48;92319.47;1780272;79;21158;-79
2021/05/19 04:24:12;;;;;;;2.72;2.35;;;;;;;8.79;77.88;92322.94;1798025;79;21091;-79
2021/05/19 04:26:39;;;;;;;2.87;2.08;;;;;;;8.81;78.25;92323.31;1798042;79;21052;-81
2021/05/19 04:29:05;;;;;;;2.30;1.87;;;;;;;8.81;78.48;92330.09;1820830;78;21048;-78
2021/05/19 04:31:32;;;;;;;4.22;1.82;;;;;;;8.83;78.50;92326.95;1830065;78;21054;-78
2021/05/19 04:33:58;;;;;;;2.87;2.50;;;;;;;8.85;78.22;92329.45;1818777;78;21138;-78
2021/05/19 04:36:25;;;;;;;2.15;2.05;;;;;;;8.86;78.22;92335.63;1800699;79;21476;-78
2021/05/19 04:38:51;;;;;;;2.65;2.05;;;;;;;8.89;78.38;92336.17;1805278;79;21598;-79
2021/05/19 04:41:20;;;;;;;2.25;2.05;;;;;;;8.89;78.22;92334.22;1789801;80;21024;-77
2021/05/19 04:43:46;;;;;;;1.80;1.50;;;;;;;8.88;77.88;92337.36;1780917;79;21570;-78
2021/05/19 04:46:13;;;;;;;2.08;1.62;;;;;;;8.85;77.57;92338.94;1793361;78;21025;-79
2021/05/19 04:48:41;;;;;;;2.58;2.00;;;;;;;8.84;77.23;92342.04;1762721;81;21523;-78
2021/05/19 04:51:08;;;;;;;2.35;2.10;;;;;;;8.83;77.00;92345.34;1751028;81;21700;-82
2021/05/19 04:53:35;;;;;;;2.27;2.02;;;;;;;8.84;77.37;92346.89;1758391;81;21043;-76
2021/05/19 04:56:02;;;;;;;2.10;2.00;;;;;;;8.82;77.98;92341.10;1759997;80;21124;-77
2021/05/19 04:58:28;;;;;;;1.52;1.42;;;;;;;8.81;77.46;92345.59;1755604;80;21118;-79
2021/05/19 05:00:57;;;;;;;1.70;1.60;;;;;;;8.81;77.79;92336.86;1745653;81;21688;-78
2021/05/19 05:03:23;;;;;;;1.80;1.70;;;;;;;8.82;77.68;92339.75;1761618;81;21069;-79
2021/05/19 05:05:51;;;;;;;1.40;1.30;;;;;;;8.87;77.73;92348.00;1760216;80;21112;-77
2021/05/19 05:08:18;;;;;;;1.57;1.47;;;;;;;8.88;77.45;92340.83;1760876;81;21042;-81
2021/05/19 05:10:44;;;;;;;1.55;1.40;;;;;;;8.90;77.50;92339.81;1762010;81;20990;-79
2021/05/19 05:13:12;;;;;;;1.70;1.60;;;;;;;8.92;78.00;92347.56;1760089;80;21100;-79
2021/05/19 05:15:38;;;;;;;1.47;1.37;;;;;;;8.94;77.64;92353.31;1746836;81;21641;-80
2021/05/19 05:18:05;;;;;;;1.72;1.20;;;;;;;8.94;77.27;92348.66;1827194;78;21014;-77
2021/05/19 05:20:32;;;;;;;2.62;1.30;;;;;;;8.97;76.98;92357.92;1798393;78;21025;-80
2021/05/19 05:22:59;;;;;;;1.30;1.30;;;;;;;8.98;77.27;92356.74;1794351;77;21020;-80
2021/05/19 05:25:26;;;;;;;1.60;1.40;;;;;;;8.98;76.99;92357.51;1838704;77;21055;-78
2021/05/19 05:27:54;;;;;;;3.45;1.42;;;;;;;8.99;76.50;92360.42;1811532;79;20977;-76
2021/05/19 05:30:21;;;;;;;1.42;1.12;;;;;;;8.99;76.82;92360.42;1759400;79;21123;-79
2021/05/19 05:32:48;;;;;;;1.10;1.00;;;;;;;9.01;76.93;92366.77;1781760;80;21127;-81
2021/05/19 05:35:14;;;;;;;3.62;1.40;;;;;;;9.03;76.79;92363.64;1781923;80;21669;-78
2021/05/19 05:37:41;;;;;;;1.17;1.17;;;;;;;9.04;76.55;92366.55;1775439;80;21521;-76
2021/05/19 05:40:08;;;;;;;2.37;1.20;;;;;;;9.05;76.69;92367.48;1775424;80;21104;-77
2021/05/19 05:42:35;;;;;;;1.32;1.20;;;;;;;9.07;76.92;92367.86;1775312;80;21116;-82
2021/05/19 05:45:02;;;;;;;1.98;1.45;;;;;;;9.08;76.69;92371.33;1737492;80;21579;-78
2021/05/19 05:47:28;;;;;;;1.37;0.98;;;;;;;9.08;76.60;92377.52;1768254;79;21016;-77
2021/05/19 05:49:56;;;;;;;1.45;1.07;;;;;;;9.08;76.78;92380.23;1787779;79;21108;-78
2021/05/19 05:52:23;;;;;;;1.17;1.07;;;;;;;9.09;76.25;92395.91;1777711;77;21108;-80
2021/05/19 05:54:50;;;;;;;2.35;1.22;;;;;;;9.08;75.91;92390.31;1835022;77;20985;-80
2021/05/19 05:57:17;;;;;;;1.35;1.25;;;;;;;9.07;76.24;92389.55;1759322;78;21134;-82
2021/05/19 05:59:44;;;;;;;1.52;1.22;;;;;;;9.07;76.35;92392.27;1763056;81;20997;-81
2021/05/19 06:02:11;;;;;;;1.65;1.55;;;;;;;9.06;76.39;92392.06;1762598;80;21036;-81
2021/05/19 06:04:37;;;;;;;2.98;2.00;;;;;;;9.06;76.40;92397.48;1754712;79;21024;-80
2021/05/19 06:07:03;;;;;;;2.72;1.98;;;;;;;9.07;76.58;92396.92;1817525;79;21095;-79
2021/05/19 06:09:31;;;;;;;1.22;1.12;;;;;;;9.08;76.92;92407.34;1749409;78;21143;-78
2021/05/19 06:11:57;;;;;;;1.62;1.52;;;;;;;9.06;76.55;92402.14;1746788;82;21645;-80
2021/05/19 06:14:24;;;;;;;1.47;1.37;;;;;;;9.08;76.15;92405.99;1741765;80;21479;-81
2021/05/19 06:16:52;;;;;;;1.27;1.17;;;;;;;9.12;76.40;92405.94;1736293;81;21069;-82
2021/05/19 06:19:19;;;;;;;1.45;1.35;;;;;;;9.13;76.31;92414.25;1735972;81;21084;-80
2021/05/19 06:21:47;;;;;;;1.32;1.22;;;;;;;9.12;76.34;92418.14;1736201;81;20995;-78
2021/05/19 06:24:13;;;;;;;1.22;1.12;;;;;;;9.11;76.19;92411.20;1743366;81;21028;-76
2021/05/19 06:26:40;;;;;;;1.30;1.20;;;;;;;9.10;76.24;92417.21;1754934;81;21077;-77
2021/05/19 06:29:06;;;;;;;2.47;1.30;;;;;;;9.09;76.72;92418.37;1797294;77;21076;-79
2021/05/19 06:31:32;;;;;;;1.15;1.10;;;;;;;9.07;76.78;92418.02;1836117;77;21060;-82
2021/05/19 06:33:59;;;;;;;2.15;1.12;;;;;;;9.07;76.74;92424.04;1761343;81;21141;-82
2021/05/19 06:36:25;;;;;;;1.65;1.42;;;;;;;9.06;76.86;92427.31;1787520;80;21696;-81
2021/05/19 06:38:52;;;;;;;0.95;0.88;;;;;;;9.06;76.88;92426.55;1770090;80;21500;-79
2021/05/19 06:41:18;;;;;;;1.15;1.05;;;;;;;9.05;76.81;92424.43;1768800;79;21431;-82
2021/05/19 06:43:46;;;;;;;1.37;1.27;;;;;;;9.04;76.88;92426.20;1796138;79;21237;-82
2021/05/19 06:46:16;;;;;;;1.42;1.10;;;;;;;9.02;76.65;92427.19;1804402;79;21111;-78
2021/05/19 06:48:42;;;;;;;1.02;0.90;;;;;;;9.02;76.79;92422.53;1801942;79;21615;-78
2021/05/19 06:51:08;;;;;;;1.15;1.05;;;;;;;9.03;76.75;92431.43;1796382;79;21088;-80
2021/05/19 06:53:36;;;;;;;2.52;1.10;;;;;;;9.03;77.00;92423.30;1791835;79;21103;-75
2021/05/19 06:56:03;;;;;;;1.30;1.20;;;;;;;9.03;77.57;92428.16;1791966;79;21601;-78
2021/05/19 06:58:31;;;;;;;1.45;1.22;;;;;;;9.04;78.03;92427.56;1791899;79;20988;-82
2021/05/19 07:00:57;;;;;;;1.00;1.00;;;;;;;9.04;78.05;92430.27;1758924;81;21100;-80
2021/05/19 07:03:24;;;;;;;2.47;1.20;;;;;;;9.04;78.05;92430.27;1770214;81;21101;-80
2021/05/19 07:05:51;;;;;;;2.35;1.42;;;;;;;9.03;77.39;92432.22;1769240;81;21088;-77
2021/05/19 07:08:21;;;;;;;4.97;1.90;;;;;;;9.03;77.73;92434.14;1760016;80;21119;-82
2021/05/19 07:10:46;;;;;;;1.30;1.20;;;;;;;9.02;77.54;92432.62;1761005;80;21681;-80
2021/05/19 07:13:16;;;;;;;3.15;1.80;;;;;;;9.00;77.64;92436.52;1761038;81;21089;-79
2021/05/19 07:15:41;;;;;;;1.70;1.55;;;;;;;9.01;77.98;92438.63;1772137;80;21130;-81
2021/05/19 07:18:10;;;;;;;1.35;1.25;;;;;;;9.03;77.85;92436.85;1774846;80;21115;-81
2021/05/19 07:20:38;;;;;;;1.20;1.10;;;;;;;8.99;78.17;92439.05;1774803;80;21021;-79
2021/05/19 07:23:04;;;;;;;1.92;1.42;;;;;;;8.98;77.83;92436.73;1772873;80;21511;-81
2021/05/19 07:25:31;;;;;;;1.67;1.57;;;;;;;8.96;77.74;92441.81;1764106;80;20997;-81
2021/05/19 07:27:57;;;;;;;1.47;1.37;;;;;;;8.95;78.29;92430.77;1763478;80;21076;-75
2021/05/19 07:30:23;;;;;;;1.77;1.15;;;;;;;8.92;77.71;92441.85;1763891;81;21568;-78
2021/05/19 07:32:51;;;;;;;1.27;1.17;;;;;;;8.89;77.79;92445.38;1782273;79;21108;-82
2021/05/19 07:35:17;;;;;;;1.50;1.35;;;;;;;8.87;77.43;92442.88;1780712;79;21036;-80
2021/05/19 07:37:43;;;;;;;2.62;2.42;;;;;;;8.84;77.85;92441.77;1821382;77;21633;-79
2021/05/19 07:40:12;;;;;;;2.92;2.60;;;;;;;8.87;77.90;92442.88;1856435;77;21070;-80
2021/05/19 07:42:40;;;;;;;2.85;1.72;;;;;;;8.91;78.39;92443.04;1781701;77;21595;-82
2021/05/19 07:45:08;;;;;;;2.30;1.77;;;;;;;8.94;78.09;92442.79;1762692;81;21570;-77
2021/05/19 07:47:34;;;;;;;1.55;1.45;;;;;;;8.99;78.41;92445.83;1767821;81;21124;-82
2021/05/19 07:50:01;;;;;;;1.47;1.32;;;;;;;9.05;78.20;92448.08;1767524;81;21092;-81
2021/05/19 07:52:27;;;;;;;1.55;1.30;;;;;;;9.10;77.81;92442.18;1767441;81;21096;-79
2021/05/19 07:54:54;;;;;;;1.70;1.60;;;;;;;9.16;77.63;92450.81;1766860;81;21072;-79
2021/05/19 07:57:24;;;;;;;2.58;2.10;;;;;;;9.19;77.40;92444.58;1767339;81;21081;-82
2021/05/19 08:00:06;;;;;;;2.92;2.67;;;;;;;9.27;76.89;92451.25;1745833;81;21080;-78
2021/05/19 08:02:18;;;;;;;2.05;1.60;;;;;;;9.30;77.02;92447.14;1832569;78;21019;-80
2021/05/19 08:04:44;;;;;;;2.33;2.12;;;;;;;9.33;75.55;92450.98;1826409;78;21629;-80
2021/05/19 08:07:11;;;;;;;2.12;1.98;;;;;;;9.35;74.94;92443.95;1822808;78;21075;-77
2021/05/19 08:09:37;;;;;;;2.35;1.90;;;;;;;9.37;75.19;92438.13;1821010;78;21066;-77
2021/05/19 08:12:04;;;;;;;4.10;1.90;;;;;;;9.37;75.25;92448.39;1814055;79;21028;-81
2021/05/19 08:14:32;;;;;;;2.02;1.77;;;;;;;9.38;75.41;92451.27;1814170;79;21036;-81
2021/05/19 08:16:59;;;;;;;1.90;1.30;;;;;;;9.40;74.41;92456.28;1813832;79;21097;-79
2021/05/19 08:19:27;;;;;;;1.25;1.25;;;;;;;9.40;74.61;92454.92;1814035;79;20993;-79
2021/05/19 08:21:55;;;;;;;2.87;1.50;;;;;;;9.43;74.17;92457.59;1813162;79;20880;-81
2021/05/19 08:24:21;;;;;;;2.00;1.50;;;;;;;9.47;73.57;92461.60;1796866;79;21048;-83
2021/05/19 08:26:48;;;;;;;1.98;1.57;;;;;;;9.45;73.80;92457.95;1808594;77;21155;-81
2021/05/19 08:29:14;;;;;;;3.40;1.60;;;;;;;9.44;74.31;92461.86;1828702;77;21080;-76
2021/05/19 08:31:40;;;;;;;1.62;1.30;;;;;;;9.49;75.42;92463.33;1753951;81;21015;-81
2021/05/19 08:34:07;;;;;;;1.40;1.00;;;;;;;9.52;73.34;92465.82;1779026;80;21083;-79
2021/05/19 08:36:33;;;;;;;2.05;1.60;;;;;;;9.52;73.78;92466.58;1783560;80;21001;-83
2021/05/19 08:38:59;;;;;;;1.25;1.10;;;;;;;9.54;73.60;92466.16;1783220;80;21020;-79
2021/05/19 08:41:26;;;;;;;1.52;1.32;;;;;;;9.51;73.46;92471.05;1793810;78;21756;-79
2021/05/19 08:43:52;;;;;;;1.00;1.00;;;;;;;9.51;73.71;92477.83;1837473;78;21475;-80
2021/05/19 08:46:19;;;;;;;1.52;1.40;;;;;;;9.52;74.44;92477.44;1762218;78;21066;-78
2021/05/19 08:48:53;;;;;;;1.10;1.05;;;;;;;9.56;74.35;92471.95;1774607;80;21585;-76
2021/05/19 08:51:14;;;;;;;1.87;1.30;;;;;;;9.59;73.64;92482.77;1806327;78;21534;-77
2021/05/19 08:53:40;;;;;;;1.67;1.37;;;;;;;9.60;73.61;92483.52;1807267;79;21036;-76
2021/05/19 08:58:37;;;;;;;5.75;3.60;;;;;;;9.62;73.44;92495.48;1809379;78;21161;-76
2021/05/19 09:01:04;;;;;;;3.17;2.15;;;;;;;9.65;73.81;92488.48;1765640;78;21114;-75
2021/05/19 09:03:35;;;;;;;2.08;1.90;;;;;;;9.73;74.15;92500.76;1772272;80;21525;-78
2021/05/19 09:06:07;;;;;;;2.20;2.08;;;;;;;9.79;73.79;92499.13;1784788;80;21696;-77
2021/05/19 09:08:38;;;;;;;3.08;1.80;;;;;;;9.84;73.65;92497.28;1762837;77;21190;-74
2021/05/19 09:11:06;;;;;;;1.70;1.60;;;;;;;9.89;73.24;92497.40;1838267;77;21039;-77
2021/05/19 09:13:44;;;;;;;3.83;2.08;;;;;;;9.93;73.45;92492.11;1758142;77;21067;-75
2021/05/19 09:16:14;;;;;;;1.90;1.80;;;;;;;9.98;73.50;92502.49;1777150;80;21043;-79
2021/05/19 09:18:55;;;;;;;3.15;2.55;;;;;;;10.11;74.07;92505.97;1805096;78;21290;-80
2021/05/19 09:21:40;;;;;;;3.77;2.30;;;;;;;10.27;73.68;92497.98;1818332;77;21095;-78
2021/05/19 09:24:22;;;;;;;2.27;1.90;;;;;;;10.49;73.56;92494.27;1808993;78;21118;-78
2021/05/19 09:26:54;;;;;;;3.12;2.62;;;;;;;10.70;73.38;92499.91;1757043;80;21096;-79
2021/05/19 09:29:26;;;;;;;3.03;2.77;;;;;;;10.92;72.65;92501.62;1781305;80;21080;-79
2021/05/19 09:31:57;;;;;;;3.00;2.20;;;;;;;11.08;71.03;92495.47;1780596;80;21607;-77
2021/05/19 09:34:37;;;;;;;4.12;1.87;;;;;;;11.16;71.11;92504.41;1785024;80;21067;-79
2021/05/19 09:37:14;;;;;;;2.92;1.82;;;;;;;11.21;70.35;92499.09;1818132;78;21130;-78
2021/05/19 09:40:01;;;;;;;1.60;1.50;;;;;;;11.22;69.60;92507.42;1793613;78;21062;-78
2021/05/19 09:42:40;;;;;;;1.92;1.65;;;;;;;11.18;69.56;92499.92;1767625;80;21024;-78
2021/05/19 09:45:18;;;;;;;2.33;2.10;;;;;;;11.17;69.73;92505.20;1782471;80;21878;-75
2021/05/19 09:47:45;;;;;;;3.40;1.90;;;;;;;11.23;71.02;92504.86;1783162;80;20980;-80
2021/05/19 09:50:16;;;;;;;2.92;1.98;;;;;;;11.37;71.06;92505.16;1783864;80;21495;-76
2021/05/19 09:53:05;;;;;;;2.00;1.87;;;;;;;11.51;71.04;92498.05;1781905;80;21139;-80
2021/05/19 09:55:32;;;;;;;1.72;1.62;;;;;;;11.67;70.62;92494.58;1777340;80;21083;-78
2021/05/19 09:57:59;;;;;;;2.08;1.60;;;;;;;11.94;69.97;92491.64;1783473;80;21091;-80
2021/05/19 10:00:28;;;;;;;2.02;1.80;;;;;;;12.24;69.13;92495.97;1801620;78;21064;-76
2021/05/19 10:02:55;;;;;;;1.80;1.70;;;;;;;12.53;68.54;92488.44;1828258;78;21213;-79
2021/05/19 10:07:50;;;;;;;1.77;1.67;;;;;;;12.99;64.69;92491.27;1834217;78;21562;-77
2021/05/19 10:10:18;;;;;;;2.30;1.67;;;;;;;13.04;65.23;92489.97;1779317;77;21565;-76
2021/05/19 10:12:44;;;;;;;4.25;1.65;;;;;;;13.05;65.36;92495.59;1768315;80;21080;-79
2021/05/19 10:15:21;;;;;;;2.20;2.00;;;;;;;13.09;64.86;92490.82;1784379;80;21075;-76
2021/05/19 10:17:52;;;;;;;1.95;1.85;;;;;;;13.18;65.00;92492.91;1790222;78;21644;-80
2021/05/19 10:20:22;;;;;;;2.10;2.00;;;;;;;13.32;63.80;92478.87;1838273;77;21084;-77
2021/05/19 10:22:49;;;;;;;3.10;2.10;;;;;;;13.46;63.14;92481.16;1790794;78;21697;-77
2021/05/19 10:25:42;;;;;;;2.02;1.82;;;;;;;13.50;62.68;92481.06;1819906;77;21108;-75
2021/05/19 10:28:16;;;;;;;2.70;2.25;;;;;;;13.50;63.03;92485.95;1786500;77;20983;-76
2021/05/19 10:30:46;;;;;;;2.60;2.10;;;;;;;13.46;62.29;92483.89;1807947;78;21616;-78
2021/05/19 10:33:39;;;;;;;2.30;2.10;;;;;;;13.49;63.04;92472.70;1821309;78;21087;-78
2021/05/19 10:36:30;;;;;;;2.08;1.98;;;;;;;13.53;61.45;92475.49;1759397;80;21247;-78
2021/05/19 10:39:12;;;;;;;2.42;2.22;;;;;;;13.50;61.06;92471.50;1792776;80;21069;-80
2021/05/19 10:41:45;;;;;;;3.05;2.65;;;;;;;13.47;61.40;92466.94;1758491;81;21112;-78
2021/05/19 10:44:19;;;;;;;2.72;2.52;;;;;;;13.43;61.56;92464.31;1774423;80;21179;-81
2021/05/19 10:52:45;;;;;;;3.72;2.67;;;;;;;13.19;60.66;92480.78;1792667;79;21028;-80
2021/05/19 10:58:01;;;;;;;;;;;;;;;13.19;61.09;92482.91;1807947;79;21107;-80
2021/05/19 11:00:31;;;;;;;2.50;2.30;;;;;;;13.18;59.79;92485.48;1800284;79;20221;-80
2021/05/19 11:03:05;;;;;;;4.45;2.80;;;;;;;13.12;59.00;92481.14;1798500;79;21098;-77
2021/05/19 11:05:34;;;;;;;2.58;2.37;;;;;;;12.95;58.31;92491.97;1799817;79;21229;-78
2021/05/19 11:08:11;;;;;;;3.35;2.15;;;;;;;12.84;59.92;92494.23;1795888;79;21087;-79
2021/05/19 11:10:49;;;;;;;4.05;2.80;;;;;;;12.79;59.99;92481.13;1795650;79;21637;-78
2021/05/19 11:13:19;;;;;;;2.47;2.30;;;;;;;12.74;60.36;92474.21;1796903;79;21595;-76
2021/05/19 11:16:07;;;;;;;3.37;3.00;;;;;;;12.71;61.29;92485.98;1796738;79;21061;-78
2021/05/19 11:21:18;;;;;;;3.40;3.10;;;;;;;12.95;63.39;92488.48;1797025;79;21057;-77
2021/05/19 11:24:01;;;;;;;2.60;2.45;;;;;;;13.19;63.30;92483.51;1774084;79;21100;-77
2021/05/19 11:26:28;;;;;;;2.77;2.58;;;;;;;13.34;58.77;92474.49;1793488;79;21510;-80
2021/05/19 11:28:57;;;;;;;2.72;2.52;;;;;;;13.38;58.30;92475.75;1743649;79;21084;-79
2021/05/19 11:31:32;;;;;;;3.62;3.33;;;;;;;13.33;58.07;92470.84;1809384;78;21670;-77
2021/05/19 11:34:01;;;;;;;2.92;2.72;;;;;;;13.28;57.44;92467.30;1817275;78;21048;-76
2021/05/19 11:36:36;;;;;;;3.20;2.90;;;;;;;13.16;56.91;92473.45;1800572;79;21148;-79
2021/05/19 11:39:06;;;;;;;3.60;3.30;;;;;;;13.04;57.74;92473.59;1789847;79;25376;-77
2021/05/19 11:41:33;;;;;;;4.40;3.00;;;;;;;13.01;58.23;92481.27;1824296;78;21091;-78
2021/05/19 11:44:01;;;;;;;4.08;3.62;;;;;;;13.02;58.88;92483.59;1846171;77;21090;-78
2021/05/19 11:46:36;;;;;;;3.95;3.65;;;;;;;13.10;58.59;92485.52;1783852;78;21072;-77
2021/05/19 11:49:11;;;;;;;3.80;3.47;;;;;;;13.14;58.62;92480.72;1818912;77;21052;-77
2021/05/19 11:51:31;;;;;;;4.03;3.62;;;;;;;13.16;58.09;92482.40;1836140;77;21288;-80
2021/05/19 11:54:02;;;;;;;3.45;3.25;;;;;;;13.17;58.38;92479.86;1768170;79;21139;-78
2021/05/19 11:56:51;;;;;;;3.70;3.40;;;;;;;13.21;58.50;92483.25;1771272;79;21151;-77
2021/05/19 11:59:27;;;;;;;3.80;3.50;;;;;;;13.21;57.84;92481.88;1804559;78;21067;-77
2021/05/19 12:02:09;;;;;;;3.70;3.40;;;;;;;13.16;57.14;92485.73;1849984;77;21062;-77
2021/05/19 12:04:39;;;;;;;3.70;3.40;;;;;;;13.07;56.83;92483.05;1822842;77;21103;-76